Time;durP1;ratioP1;P1;durP2;ratioP2;P2;SDS_P1;SDS_P2;PMS_P1;PMS_P2;Temp;Humidity;BMP_temperature;BMP_pressure;BME280_temperature;BME280_humidity;BME280_pressure;Samples;Min_cycle;Max_cycle;Signal;HPM_P1;HPM_P2
2021/03/14 00:01:32;;;;;;;2.50;1.70;;;;;;;;;;5040356;28;20200;-62
2021/03/14 00:03:58;;;;;;;5.53;2.47;;;;;;;;;;5050622;28;20173;-63
2021/03/14 00:06:24;;;;;;;4.40;2.30;;;;;;;;;;5040008;28;20192;-62
2021/03/14 00:08:53;;;;;;;4.03;2.17;;;;;;;;;;5039372;28;20181;-64
2021/03/14 00:11:20;;;;;;;5.90;2.40;;;;;;;;;;5029478;28;20247;-62
2021/03/14 00:13:47;;;;;;;4.03;2.37;;;;;;;;;;5042652;28;20203;-63
2021/03/14 00:16:13;;;;;;;3.37;2.30;;;;;;;;;;5043350;28;20181;-63
2021/03/14 00:18:40;;;;;;;4.37;2.57;;;;;;;;;;5036838;28;20188;-64
2021/03/14 00:21:08;;;;;;;4.73;3.00;;;;;;;;;;5054840;28;20616;-63
2021/03/14 00:23:37;;;;;;;4.83;3.17;;;;;;;;;;5042514;28;20185;-63
2021/03/14 00:26:04;;;;;;;4.20;2.53;;;;;;;;;;5057285;28;20173;-62
2021/03/14 00:28:30;;;;;;;5.80;2.53;;;;;;;;;;5053280;28;20260;-64
2021/03/14 00:30:57;;;;;;;5.37;2.83;;;;;;;;;;5034380;28;20499;-62
2021/03/14 00:33:33;;;;;;;4.57;2.63;;;;;;;;;;5045649;28;20264;-62
2021/03/14 00:35:59;;;;;;;5.20;2.63;;;;;;;;;;5051071;28;20188;-62
2021/03/14 00:38:25;;;;;;;3.70;2.33;;;;;;;;;;5054914;28;20165;-63
2021/03/14 00:40:52;;;;;;;4.43;2.03;;;;;;;;;;5026820;28;20177;-62
2021/03/14 00:43:18;;;;;;;5.30;2.20;;;;;;;;;;5028255;28;20607;-62
2021/03/14 00:45:44;;;;;;;4.90;2.10;;;;;;;;;;5056045;28;20259;-62
2021/03/14 00:48:11;;;;;;;3.83;2.10;;;;;;;;;;5055079;28;20173;-63
2021/03/14 00:50:41;;;;;;;4.30;2.03;;;;;;;;;;5025063;28;20683;-62
2021/03/14 00:53:07;;;;;;;2.47;1.87;;;;;;;;;;5015566;28;20252;-61
2021/03/14 00:55:34;;;;;;;5.20;2.37;;;;;;;;;;5052266;28;20180;-62
2021/03/14 00:58:00;;;;;;;4.67;2.10;;;;;;;;;;5046740;28;20174;-62
2021/03/14 01:00:26;;;;;;;4.17;2.50;;;;;;;;;;5036218;28;20205;-64
2021/03/14 01:02:52;;;;;;;3.53;2.00;;;;;;;;;;5052962;28;20187;-63
2021/03/14 01:05:19;;;;;;;4.33;1.60;;;;;;;;;;5053081;28;20188;-62
2021/03/14 01:07:45;;;;;;;4.33;2.13;;;;;;;;;;5044323;28;20178;-62
2021/03/14 01:10:17;;;;;;;3.97;2.00;;;;;;;;;;5011816;28;20198;-64
2021/03/14 01:12:43;;;;;;;3.90;1.90;;;;;;;;;;5030777;28;20197;-62
2021/03/14 01:15:10;;;;;;;2.20;1.90;;;;;;;;;;5033914;28;20194;-62
2021/03/14 01:17:37;;;;;;;3.30;1.73;;;;;;;;;;5036407;28;20233;-63
2021/03/14 01:20:05;;;;;;;2.63;1.60;;;;;;;;;;5036058;28;20205;-62
2021/03/14 01:22:31;;;;;;;3.60;1.57;;;;;;;;;;5035228;28;20180;-63
2021/03/14 01:24:57;;;;;;;3.80;1.80;;;;;;;;;;5034842;28;20228;-62
2021/03/14 01:27:24;;;;;;;2.67;1.70;;;;;;;;;;5032404;28;20505;-63
2021/03/14 01:29:50;;;;;;;4.23;2.00;;;;;;;;;;5051489;28;20185;-62
2021/03/14 01:32:16;;;;;;;2.17;1.70;;;;;;;;;;5049790;28;20248;-64
2021/03/14 01:34:42;;;;;;;2.53;1.50;;;;;;;;;;5044360;28;20270;-62
2021/03/14 01:37:08;;;;;;;4.27;1.87;;;;;;;;;;5048610;28;20220;-62
2021/03/14 01:39:34;;;;;;;1.60;1.50;;;;;;;;;;5014324;28;20675;-63
2021/03/14 01:42:00;;;;;;;2.53;1.30;;;;;;;;;;5035045;28;20293;-64
2021/03/14 01:44:26;;;;;;;2.83;1.60;;;;;;;;;;5038219;28;20182;-63
2021/03/14 01:46:52;;;;;;;6.33;1.77;;;;;;;;;;5032941;28;20554;-63
2021/03/14 01:49:18;;;;;;;2.40;1.73;;;;;;;;;;5049617;28;20204;-62
2021/03/14 01:51:45;;;;;;;4.63;1.40;;;;;;;;;;5052854;28;20612;-62
2021/03/14 01:54:11;;;;;;;3.77;1.70;;;;;;;;;;5046947;28;20576;-64
2021/03/14 01:56:38;;;;;;;3.63;2.13;;;;;;;;;;5018877;28;20185;-62
2021/03/14 01:59:04;;;;;;;1.60;1.40;;;;;;;;;;5032475;28;20189;-62
2021/03/14 02:01:30;;;;;;;3.50;1.80;;;;;;;;;;5033250;28;20211;-62
2021/03/14 02:03:57;;;;;;;4.33;2.07;;;;;;;;;;5034064;28;20805;-61
2021/03/14 02:06:23;;;;;;;8.10;2.77;;;;;;;;;;5038579;28;20181;-62
2021/03/14 02:08:49;;;;;;;4.40;2.00;;;;;;;;;;5049294;28;20173;-63
2021/03/14 02:11:15;;;;;;;4.00;1.83;;;;;;;;;;5047606;28;20185;-62
2021/03/14 02:13:42;;;;;;;6.67;1.93;;;;;;;;;;5036616;28;20595;-65
2021/03/14 02:16:10;;;;;;;2.63;1.87;;;;;;;;;;5034654;28;20178;-64
2021/03/14 02:18:37;;;;;;;4.73;2.13;;;;;;;;;;5032937;28;20208;-64
2021/03/14 02:21:04;;;;;;;4.70;2.00;;;;;;;;;;5035980;28;20592;-62
2021/03/14 02:23:48;;;;;;;7.80;2.40;;;;;;;;;;5043674;28;20744;-62
2021/03/14 02:26:23;;;;;;;2.50;2.10;;;;;;;;;;5047031;28;20178;-63
2021/03/14 02:28:50;;;;;;;7.33;2.30;;;;;;;;;;5039884;28;20216;-62
2021/03/14 02:31:19;;;;;;;6.10;2.60;;;;;;;;;;5052488;28;20171;-62
2021/03/14 02:33:47;;;;;;;6.40;2.10;;;;;;;;;;5040912;28;20288;-63
2021/03/14 02:36:14;;;;;;;4.07;2.50;;;;;;;;;;5049452;28;20644;-62
2021/03/14 02:38:43;;;;;;;5.57;2.47;;;;;;;;;;5033487;28;20180;-63
2021/03/14 02:41:10;;;;;;;4.67;2.43;;;;;;;;;;5046634;28;20173;-63
2021/03/14 02:43:37;;;;;;;5.23;2.33;;;;;;;;;;5050312;28;20322;-63
2021/03/14 02:46:03;;;;;;;4.83;2.47;;;;;;;;;;5045054;28;20216;-62
2021/03/14 02:48:30;;;;;;;4.43;2.30;;;;;;;;;;5014746;28;20256;-62
2021/03/14 02:50:57;;;;;;;5.10;2.97;;;;;;;;;;5050948;28;20212;-63
2021/03/14 02:53:24;;;;;;;7.03;2.80;;;;;;;;;;5047438;28;20482;-62
2021/03/14 02:55:52;;;;;;;6.30;2.60;;;;;;;;;;5037894;28;20177;-62
2021/03/14 02:58:18;;;;;;;7.37;2.73;;;;;;;;;;5039046;28;20185;-62
2021/03/14 03:00:45;;;;;;;4.43;2.70;;;;;;;;;;5033502;28;20178;-63
2021/03/14 03:03:11;;;;;;;3.37;2.20;;;;;;;;;;5038500;28;20181;-62
2021/03/14 03:05:38;;;;;;;6.43;3.00;;;;;;;;;;5050353;28;20177;-64
2021/03/14 03:08:04;;;;;;;4.60;1.90;;;;;;;;;;5037007;28;20213;-62
2021/03/14 03:10:39;;;;;;;6.40;2.90;;;;;;;;;;5045528;28;20193;-62
2021/03/14 03:13:07;;;;;;;3.90;2.20;;;;;;;;;;5031570;28;20213;-62
2021/03/14 03:15:33;;;;;;;4.70;2.27;;;;;;;;;;5027961;28;20193;-62
2021/03/14 03:18:00;;;;;;;7.03;2.60;;;;;;;;;;5013492;28;20504;-62
2021/03/14 03:20:27;;;;;;;6.23;2.63;;;;;;;;;;5036875;28;20240;-63
2021/03/14 03:22:54;;;;;;;3.77;1.90;;;;;;;;;;5051477;28;20181;-62
2021/03/14 03:25:20;;;;;;;4.70;2.10;;;;;;;;;;5015567;28;20182;-62
2021/03/14 03:27:46;;;;;;;4.60;2.10;;;;;;;;;;5030778;28;20221;-62
2021/03/14 03:30:13;;;;;;;4.67;2.00;;;;;;;;;;5028173;28;20616;-62
2021/03/14 03:32:39;;;;;;;4.60;2.53;;;;;;;;;;5033092;28;20213;-62
2021/03/14 03:35:09;;;;;;;5.80;2.03;;;;;;;;;;5031728;28;20179;-62
2021/03/14 03:37:35;;;;;;;2.53;1.60;;;;;;;;;;5018844;28;20182;-62
2021/03/14 03:40:03;;;;;;;2.57;1.57;;;;;;;;;;5042284;28;20235;-63
2021/03/14 03:42:31;;;;;;;3.30;1.67;;;;;;;;;;5050386;28;20185;-63
2021/03/14 03:44:58;;;;;;;5.70;2.03;;;;;;;;;;5030381;28;20234;-63
2021/03/14 03:47:26;;;;;;;4.70;2.10;;;;;;;;;;5050066;28;20191;-63
2021/03/14 03:49:53;;;;;;;6.77;2.07;;;;;;;;;;5044172;28;20216;-63
2021/03/14 03:52:20;;;;;;;4.10;1.80;;;;;;;;;;5034286;28;20201;-62
2021/03/14 03:54:50;;;;;;;5.80;2.50;;;;;;;;;;5043600;28;20252;-61
2021/03/14 03:57:16;;;;;;;3.07;1.90;;;;;;;;;;5032254;28;20177;-61
2021/03/14 03:59:43;;;;;;;5.50;2.30;;;;;;;;;;5044702;28;20181;-62
2021/03/14 04:02:10;;;;;;;9.40;2.03;;;;;;;;;;5050941;28;20308;-61
2021/03/14 04:04:38;;;;;;;1.93;1.40;;;;;;;;;;5048749;28;20583;-61
2021/03/14 04:07:04;;;;;;;2.47;1.60;;;;;;;;;;5023525;28;20591;-61
2021/03/14 04:09:30;;;;;;;4.90;2.57;;;;;;;;;;5020094;28;20276;-61
2021/03/14 04:11:57;;;;;;;6.77;3.27;;;;;;;;;;5013190;28;20545;-62
2021/03/14 04:14:24;;;;;;;4.07;2.10;;;;;;;;;;5038571;28;20177;-65
2021/03/14 04:16:50;;;;;;;5.17;2.33;;;;;;;;;;5032296;28;20650;-62
2021/03/14 04:19:19;;;;;;;6.13;2.60;;;;;;;;;;5045447;28;20215;-62
2021/03/14 04:21:45;;;;;;;9.77;2.73;;;;;;;;;;5025072;28;20173;-62
2021/03/14 04:24:12;;;;;;;5.10;2.23;;;;;;;;;;5046269;28;20185;-61
2021/03/14 04:26:41;;;;;;;4.07;3.40;;;;;;;;;;5050056;28;20239;-63
2021/03/14 04:29:08;;;;;;;4.87;2.37;;;;;;;;;;5042037;28;20209;-61
2021/03/14 04:31:35;;;;;;;5.57;2.80;;;;;;;;;;5025316;28;20649;-62
2021/03/14 04:34:01;;;;;;;6.00;2.80;;;;;;;;;;5018022;28;20575;-61
2021/03/14 04:36:28;;;;;;;5.97;2.30;;;;;;;;;;5046367;28;20538;-61
2021/03/14 04:38:54;;;;;;;4.80;2.50;;;;;;;;;;5030250;28;20220;-62
2021/03/14 04:41:21;;;;;;;3.57;2.10;;;;;;;;;;5030070;28;20209;-61
2021/03/14 04:43:48;;;;;;;4.53;2.77;;;;;;;;;;5035555;28;20180;-62
2021/03/14 04:46:15;;;;;;;3.87;2.53;;;;;;;;;;5026238;28;20201;-62
2021/03/14 04:48:41;;;;;;;4.63;2.80;;;;;;;;;;5048244;28;20208;-61
2021/03/14 04:51:08;;;;;;;6.10;2.97;;;;;;;;;;5049210;28;20252;-62
2021/03/14 04:53:35;;;;;;;6.57;2.93;;;;;;;;;;5046856;28;20211;-64
2021/03/14 04:56:02;;;;;;;5.67;3.03;;;;;;;;;;5049811;28;20170;-62
2021/03/14 04:58:29;;;;;;;5.97;3.13;;;;;;;;;;5047089;28;20189;-61
2021/03/14 05:00:55;;;;;;;8.07;3.57;;;;;;;;;;5046998;28;20216;-61
2021/03/14 05:03:22;;;;;;;9.30;3.27;;;;;;;;;;5011317;28;20558;-62
2021/03/14 05:05:50;;;;;;;4.67;3.03;;;;;;;;;;5048750;28;21044;-62
2021/03/14 05:08:19;;;;;;;6.60;3.50;;;;;;;;;;5030525;28;20292;-63
2021/03/14 05:10:45;;;;;;;6.70;3.57;;;;;;;;;;5044696;28;20198;-62
2021/03/14 05:13:12;;;;;;;9.73;3.37;;;;;;;;;;5029412;28;20686;-62
2021/03/14 05:15:38;;;;;;;8.37;3.57;;;;;;;;;;5048307;28;20248;-62
2021/03/14 05:18:06;;;;;;;5.47;3.20;;;;;;;;;;5045125;28;20197;-62
2021/03/14 05:20:32;;;;;;;3.73;2.80;;;;;;;;;;5030152;28;20259;-62
2021/03/14 05:22:59;;;;;;;5.27;3.00;;;;;;;;;;5029704;28;20205;-62
2021/03/14 05:25:25;;;;;;;3.80;2.53;;;;;;;;;;5045418;28;20309;-62
2021/03/14 05:27:53;;;;;;;4.73;2.60;;;;;;;;;;5048712;28;20212;-62
2021/03/14 05:30:26;;;;;;;6.10;3.17;;;;;;;;;;5031687;28;20628;-65
2021/03/14 05:32:53;;;;;;;5.00;3.23;;;;;;;;;;5029545;28;20837;-62
2021/03/14 05:35:21;;;;;;;4.33;2.47;;;;;;;;;;5041214;28;20601;-62
2021/03/14 05:37:47;;;;;;;5.30;3.10;;;;;;;;;;5043062;28;20272;-61
2021/03/14 05:40:13;;;;;;;4.17;2.77;;;;;;;;;;5038070;28;20185;-62
2021/03/14 05:42:40;;;;;;;6.80;2.40;;;;;;;;;;5040963;28;20197;-64
2021/03/14 05:45:06;;;;;;;5.77;3.03;;;;;;;;;;5043306;28;20216;-61
2021/03/14 05:47:32;;;;;;;5.17;2.47;;;;;;;;;;5031384;28;20178;-62
2021/03/14 05:49:58;;;;;;;4.50;2.47;;;;;;;;;;5040407;28;20205;-61
2021/03/14 05:52:24;;;;;;;6.00;2.60;;;;;;;;;;5048029;28;20292;-62
2021/03/14 05:54:51;;;;;;;9.07;2.90;;;;;;;;;;5027446;28;20550;-62
2021/03/14 05:57:18;;;;;;;5.07;2.30;;;;;;;;;;5044459;28;20224;-63
2021/03/14 05:59:50;;;;;;;6.63;2.63;;;;;;;;;;5036308;28;20223;-64
2021/03/14 06:02:19;;;;;;;5.37;2.90;;;;;;;;;;5021426;28;20562;-62
2021/03/14 06:04:53;;;;;;;5.40;2.23;;;;;;;;;;5035919;28;20181;-62
2021/03/14 06:07:19;;;;;;;6.07;2.30;;;;;;;;;;5031027;28;20185;-62
2021/03/14 06:09:45;;;;;;;5.50;2.23;;;;;;;;;;5038579;28;20194;-62
2021/03/14 06:12:11;;;;;;;5.33;2.73;;;;;;;;;;5013118;28;20182;-62
2021/03/14 06:14:38;;;;;;;8.27;2.67;;;;;;;;;;5049397;28;20307;-62
2021/03/14 06:17:04;;;;;;;7.40;2.37;;;;;;;;;;5052634;28;20416;-61
2021/03/14 06:19:30;;;;;;;5.37;2.67;;;;;;;;;;5047277;28;20180;-62
2021/03/14 06:22:15;;;;;;;5.87;2.23;;;;;;;;;;5032934;28;20185;-62
2021/03/14 06:24:41;;;;;;;6.63;2.87;;;;;;;;;;5033721;28;20656;-62
2021/03/14 06:27:07;;;;;;;8.43;2.33;;;;;;;;;;5043215;28;20263;-61
2021/03/14 06:29:33;;;;;;;6.93;2.33;;;;;;;;;;5052155;28;20917;-61
2021/03/14 06:32:00;;;;;;;6.73;3.10;;;;;;;;;;5048780;28;20660;-62
2021/03/14 06:34:32;;;;;;;3.93;2.37;;;;;;;;;;5032278;28;20200;-62
2021/03/14 06:36:59;;;;;;;4.37;2.50;;;;;;;;;;5032526;28;20911;-61
2021/03/14 06:39:29;;;;;;;10.63;2.63;;;;;;;;;;5014045;28;20248;-63
2021/03/14 06:41:56;;;;;;;6.57;2.80;;;;;;;;;;5049417;28;20187;-64
2021/03/14 06:44:23;;;;;;;4.80;2.00;;;;;;;;;;5032886;28;20269;-62
2021/03/14 06:46:49;;;;;;;3.67;2.50;;;;;;;;;;5032396;28;20303;-61
2021/03/14 06:49:19;;;;;;;5.40;2.40;;;;;;;;;;5032025;28;20194;-63
2021/03/14 06:51:46;;;;;;;4.53;2.37;;;;;;;;;;5031787;28;20166;-63
2021/03/14 06:54:18;;;;;;;3.63;2.23;;;;;;;;;;5031239;28;20201;-62
2021/03/14 06:57:05;;;;;;;6.77;2.33;;;;;;;;;;5031768;28;20176;-62
2021/03/14 06:59:32;;;;;;;5.57;2.63;;;;;;;;;;5031157;28;20517;-62
2021/03/14 07:01:59;;;;;;;4.10;2.33;;;;;;;;;;5048276;28;20186;-64
2021/03/14 07:04:43;;;;;;;4.27;2.33;;;;;;;;;;5042308;28;20177;-64
2021/03/14 07:07:14;;;;;;;4.33;2.00;;;;;;;;;;5041245;28;20496;-61
2021/03/14 07:09:40;;;;;;;4.83;2.10;;;;;;;;;;5027591;28;20189;-62
2021/03/14 07:12:24;;;;;;;5.27;3.23;;;;;;;;;;5025791;28;20671;-62
2021/03/14 07:14:50;;;;;;;4.13;1.93;;;;;;;;;;5034394;28;20228;-62
2021/03/14 07:17:30;;;;;;;4.40;1.90;;;;;;;;;;5044461;28;20616;-62
2021/03/14 07:20:00;;;;;;;5.10;2.13;;;;;;;;;;5026157;28;20209;-62
2021/03/14 07:22:26;;;;;;;4.60;3.43;;;;;;;;;;5047255;28;20185;-61
2021/03/14 07:24:52;;;;;;;6.67;3.00;;;;;;;;;;5024505;28;20185;-61
2021/03/14 07:27:31;;;;;;;5.23;2.80;;;;;;;;;;5053047;28;20201;-62
2021/03/14 07:29:58;;;;;;;9.13;3.27;;;;;;;;;;5048347;28;20161;-62
2021/03/14 07:32:25;;;;;;;5.13;2.87;;;;;;;;;;5063860;28;20215;-62
2021/03/14 07:34:51;;;;;;;5.10;2.50;;;;;;;;;;5050213;28;20180;-62
2021/03/14 07:37:17;;;;;;;3.03;2.13;;;;;;;;;;5030036;28;20268;-64
2021/03/14 07:39:47;;;;;;;3.93;2.33;;;;;;;;;;5031284;28;20419;-62
2021/03/14 07:42:18;;;;;;;4.87;2.20;;;;;;;;;;5052063;28;20170;-63
2021/03/14 07:44:44;;;;;;;5.40;2.70;;;;;;;;;;5030953;28;20423;-62
2021/03/14 07:47:13;;;;;;;8.00;2.90;;;;;;;;;;5037868;28;20187;-63
2021/03/14 07:49:42;;;;;;;7.87;2.67;;;;;;;;;;5039319;28;20221;-63
2021/03/14 07:52:10;;;;;;;4.00;2.33;;;;;;;;;;5034209;28;20180;-61
2021/03/14 07:54:39;;;;;;;4.27;2.47;;;;;;;;;;5033079;28;20181;-63
2021/03/14 07:57:06;;;;;;;6.87;2.77;;;;;;;;;;5033403;28;20611;-64
2021/03/14 07:59:33;;;;;;;5.87;2.33;;;;;;;;;;5051038;28;20180;-61
2021/03/14 08:02:18;;;;;;;3.20;2.90;;;;;;;;;;5051050;28;20187;-61
2021/03/14 08:04:47;;;;;;;4.43;2.40;;;;;;;;;;5056074;28;20608;-62
2021/03/14 08:07:13;;;;;;;4.93;2.57;;;;;;;;;;5039619;28;20276;-61
2021/03/14 08:09:40;;;;;;;4.47;2.40;;;;;;;;;;5034529;28;20181;-62
2021/03/14 08:12:26;;;;;;;4.13;2.30;;;;;;;;;;5035335;28;20293;-62
2021/03/14 08:14:56;;;;;;;4.57;2.77;;;;;;;;;;5041056;28;20604;-62
2021/03/14 08:17:23;;;;;;;6.20;2.50;;;;;;;;;;5039585;28;20635;-61
2021/03/14 08:19:49;;;;;;;4.90;2.73;;;;;;;;;;5056651;28;20178;-61
2021/03/14 08:22:34;;;;;;;5.47;2.67;;;;;;;;;;5062556;28;20169;-61
2021/03/14 08:25:16;;;;;;;3.47;2.37;;;;;;;;;;5057016;28;20596;-61
2021/03/14 08:27:42;;;;;;;4.67;2.37;;;;;;;;;;5037631;28;20165;-62
2021/03/14 08:30:08;;;;;;;4.33;2.20;;;;;;;;;;5054633;28;20218;-62
2021/03/14 08:32:34;;;;;;;3.87;2.77;;;;;;;;;;5048805;28;20247;-62
2021/03/14 08:35:00;;;;;;;5.67;2.60;;;;;;;;;;5038078;28;20177;-63
2021/03/14 08:37:27;;;;;;;5.53;2.50;;;;;;;;;;5041615;28;20189;-62
2021/03/14 08:40:03;;;;;;;5.40;2.17;;;;;;;;;;5022308;28;20581;-62
2021/03/14 08:42:48;;;;;;;4.47;2.47;;;;;;;;;;5022406;28;20236;-61
2021/03/14 08:45:24;;;;;;;3.23;2.20;;;;;;;;;;5035177;28;20193;-61
2021/03/14 08:47:51;;;;;;;5.47;2.70;;;;;;;;;;5042513;28;20818;-61
2021/03/14 08:50:17;;;;;;;4.73;2.57;;;;;;;;;;5027010;28;20201;-62
2021/03/14 08:52:43;;;;;;;3.90;2.80;;;;;;;;;;5037735;28;20723;-62
2021/03/14 08:55:09;;;;;;;4.63;2.77;;;;;;;;;;5013299;28;20189;-63
2021/03/14 08:57:35;;;;;;;3.83;2.33;;;;;;;;;;5016768;28;20182;-64
2021/03/14 09:00:02;;;;;;;4.73;3.07;;;;;;;;;;5035868;28;20446;-61
2021/03/14 09:02:32;;;;;;;5.87;3.43;;;;;;;;;;5041707;28;20197;-61
2021/03/14 09:05:12;;;;;;;5.47;3.00;;;;;;;;;;5030776;28;20192;-64
2021/03/14 09:07:38;;;;;;;6.77;2.90;;;;;;;;;;5017197;28;20483;-62
2021/03/14 09:10:14;;;;;;;5.70;2.90;;;;;;;;;;5037964;28;20189;-62
2021/03/14 09:12:41;;;;;;;5.50;3.00;;;;;;;;;;5037609;28;20232;-62
2021/03/14 09:15:08;;;;;;;3.20;2.70;;;;;;;;;;5047444;28;20176;-62
2021/03/14 09:17:38;;;;;;;4.33;3.40;;;;;;;;;;5033821;28;20191;-62
2021/03/14 09:20:05;;;;;;;4.67;3.03;;;;;;;;;;5022377;28;20291;-61
2021/03/14 09:22:32;;;;;;;4.40;3.03;;;;;;;;;;5043469;28;20471;-62
2021/03/14 09:25:04;;;;;;;3.00;2.70;;;;;;;;;;5026458;28;20242;-62
2021/03/14 09:27:31;;;;;;;3.13;2.80;;;;;;;;;;5027426;28;20195;-63
2021/03/14 09:29:59;;;;;;;3.63;3.30;;;;;;;;;;5043241;28;20239;-62
2021/03/14 09:32:25;;;;;;;3.97;3.07;;;;;;;;;;5049818;28;20486;-61
2021/03/14 09:35:08;;;;;;;7.93;3.60;;;;;;;;;;5036325;28;20176;-62
2021/03/14 09:37:35;;;;;;;5.13;2.97;;;;;;;;;;5023464;28;20211;-61
2021/03/14 09:40:12;;;;;;;6.93;3.90;;;;;;;;;;5049156;28;20185;-64
2021/03/14 09:42:38;;;;;;;6.63;3.27;;;;;;;;;;5052807;28;20227;-62
2021/03/14 09:45:06;;;;;;;4.47;3.17;;;;;;;;;;5053066;28;20185;-62
2021/03/14 09:47:32;;;;;;;5.40;3.67;;;;;;;;;;5044042;28;20890;-61
2021/03/14 09:50:02;;;;;;;6.00;3.90;;;;;;;;;;5053749;28;20283;-61
2021/03/14 09:52:28;;;;;;;4.60;3.53;;;;;;;;;;5043591;28;20204;-62
2021/03/14 09:54:54;;;;;;;5.03;3.20;;;;;;;;;;5040658;28;20533;-62
2021/03/14 09:57:23;;;;;;;6.23;3.43;;;;;;;;;;5052549;28;20280;-62
2021/03/14 09:59:49;;;;;;;5.77;3.00;;;;;;;;;;5056236;28;20271;-62
2021/03/14 10:02:15;;;;;;;3.73;3.27;;;;;;;;;;5047497;28;20234;-62
2021/03/14 10:04:49;;;;;;;4.10;3.37;;;;;;;;;;5042843;28;20205;-63
2021/03/14 10:07:26;;;;;;;5.57;3.40;;;;;;;;;;5050789;28;20181;-62
2021/03/14 10:09:52;;;;;;;6.90;3.43;;;;;;;;;;5046510;28;20225;-62
2021/03/14 10:12:19;;;;;;;5.37;3.20;;;;;;;;;;5058274;28;20181;-62
2021/03/14 10:14:45;;;;;;;3.97;3.20;;;;;;;;;;5064762;28;20180;-61
2021/03/14 10:17:14;;;;;;;5.27;3.20;;;;;;;;;;5054949;28;20180;-62
2021/03/14 10:19:41;;;;;;;4.93;3.70;;;;;;;;;;5047361;28;20173;-62
2021/03/14 10:22:07;;;;;;;5.07;3.97;;;;;;;;;;5053492;28;20239;-64
2021/03/14 10:24:33;;;;;;;8.87;5.90;;;;;;;;;;5042760;28;20177;-60
2021/03/14 10:27:04;;;;;;;8.00;6.03;;;;;;;;;;5051406;28;20545;-60
2021/03/14 10:29:30;;;;;;;5.77;5.03;;;;;;;;;;5053489;28;20231;-60
2021/03/14 10:31:56;;;;;;;5.93;4.60;;;;;;;;;;5059606;28;20184;-63
2021/03/14 10:34:23;;;;;;;6.23;4.50;;;;;;;;;;5024810;28;20240;-62
2021/03/14 10:36:49;;;;;;;8.73;4.27;;;;;;;;;;5045348;28;20204;-63
2021/03/14 10:39:22;;;;;;;8.10;4.23;;;;;;;;;;5039139;28;20628;-62
2021/03/14 10:41:48;;;;;;;5.90;4.30;;;;;;;;;;5057017;28;20192;-65
2021/03/14 10:44:18;;;;;;;4.50;3.83;;;;;;;;;;5050613;28;20235;-62
2021/03/14 10:46:51;;;;;;;6.37;4.50;;;;;;;;;;5051099;28;20207;-63
2021/03/14 10:49:19;;;;;;;5.97;3.93;;;;;;;;;;5041514;28;20256;-62
2021/03/14 10:51:49;;;;;;;6.33;4.47;;;;;;;;;;5039393;28;20334;-62
2021/03/14 10:54:16;;;;;;;7.70;4.77;;;;;;;;;;5018866;28;20263;-62
2021/03/14 10:56:45;;;;;;;5.50;4.43;;;;;;;;;;5050809;28;20530;-62
2021/03/14 10:59:26;;;;;;;6.63;4.80;;;;;;;;;;5053478;28;20872;-62
2021/03/14 11:01:56;;;;;;;6.03;4.20;;;;;;;;;;5055831;28;20218;-62
2021/03/14 11:04:26;;;;;;;6.83;5.37;;;;;;;;;;5041470;28;20297;-64
2021/03/14 11:06:52;;;;;;;5.80;4.70;;;;;;;;;;5045699;28;20177;-62
2021/03/14 11:09:19;;;;;;;6.93;5.10;;;;;;;;;;5046866;28;20186;-62
2021/03/14 11:11:52;;;;;;;5.73;4.83;;;;;;;;;;5062411;28;20177;-61
2021/03/14 11:14:24;;;;;;;6.80;5.10;;;;;;;;;;5043101;28;20204;-62
2021/03/14 11:17:23;;;;;;;6.70;4.57;;;;;;;;;;5040547;28;20208;-61
2021/03/14 11:19:51;;;;;;;4.83;4.37;;;;;;;;;;5001920;28;20279;-62
2021/03/14 11:22:18;;;;;;;9.77;5.27;;;;;;;;;;5054485;28;20189;-64
2021/03/14 11:24:45;;;;;;;6.43;5.67;;;;;;;;;;5047452;28;20211;-61
2021/03/14 11:27:11;;;;;;;5.93;4.57;;;;;;;;;;5057097;28;20240;-63
2021/03/14 11:29:38;;;;;;;5.77;4.63;;;;;;;;;;5052840;28;20240;-63
2021/03/14 11:32:04;;;;;;;4.60;4.20;;;;;;;;;;5061710;28;20169;-63
2021/03/14 11:34:30;;;;;;;9.33;4.60;;;;;;;;;;5064763;28;20240;-62
2021/03/14 11:36:56;;;;;;;5.23;4.70;;;;;;;;;;5051092;28;20188;-61
2021/03/14 11:39:23;;;;;;;7.20;5.00;;;;;;;;;;5031086;28;20216;-63
2021/03/14 11:41:49;;;;;;;8.90;5.00;;;;;;;;;;5048272;28;20181;-62
2021/03/14 11:44:15;;;;;;;6.43;4.70;;;;;;;;;;5022490;28;20634;-62
2021/03/14 11:46:42;;;;;;;6.83;4.80;;;;;;;;;;5026501;28;20249;-62
2021/03/14 11:49:08;;;;;;;6.00;4.90;;;;;;;;;;5036573;28;20286;-62
2021/03/14 11:51:34;;;;;;;8.30;5.27;;;;;;;;;;5028823;28;20247;-62
2021/03/14 11:54:00;;;;;;;6.30;4.93;;;;;;;;;;5031030;28;20212;-62
2021/03/14 11:56:27;;;;;;;5.67;4.53;;;;;;;;;;5042233;28;20184;-62
2021/03/14 11:58:53;;;;;;;6.07;4.50;;;;;;;;;;5054367;28;20252;-63
2021/03/14 12:01:19;;;;;;;5.20;4.70;;;;;;;;;;5043938;28;20193;-61
2021/03/14 12:03:46;;;;;;;5.87;4.93;;;;;;;;;;5030262;28;20277;-62
2021/03/14 12:06:13;;;;;;;6.03;4.93;;;;;;;;;;5031601;28;20188;-61
2021/03/14 12:08:39;;;;;;;5.17;4.20;;;;;;;;;;5023465;28;20190;-62
2021/03/14 12:11:06;;;;;;;5.27;4.50;;;;;;;;;;5046423;28;20194;-64
2021/03/14 12:13:35;;;;;;;6.50;4.63;;;;;;;;;;5036104;28;20288;-62
2021/03/14 12:16:02;;;;;;;5.23;4.30;;;;;;;;;;5043675;28;20539;-62
2021/03/14 12:18:29;;;;;;;4.63;3.90;;;;;;;;;;5038625;28;20180;-62
2021/03/14 12:20:55;;;;;;;6.37;4.60;;;;;;;;;;5022580;28;20207;-63
2021/03/14 12:23:21;;;;;;;4.80;4.30;;;;;;;;;;5044477;28;20201;-63
2021/03/14 12:25:47;;;;;;;5.90;4.37;;;;;;;;;;5031048;28;20181;-62
2021/03/14 12:28:13;;;;;;;6.17;4.37;;;;;;;;;;5051633;28;20217;-64
2021/03/14 12:30:39;;;;;;;7.43;4.13;;;;;;;;;;5040885;28;20177;-62
2021/03/14 12:33:05;;;;;;;6.40;4.70;;;;;;;;;;5052084;28;20208;-63
2021/03/14 12:35:31;;;;;;;4.90;3.80;;;;;;;;;;5051998;28;20177;-62
2021/03/14 12:37:57;;;;;;;6.27;4.07;;;;;;;;;;5062677;28;20183;-63
2021/03/14 12:40:24;;;;;;;5.73;3.60;;;;;;;;;;5048436;28;20244;-63
2021/03/14 12:42:50;;;;;;;6.63;4.10;;;;;;;;;;5031665;28;20237;-62
2021/03/14 12:45:19;;;;;;;5.87;3.80;;;;;;;;;;5046012;28;20196;-62
2021/03/14 12:47:45;;;;;;;5.80;4.80;;;;;;;;;;5054546;28;20542;-63
2021/03/14 12:50:12;;;;;;;4.83;4.33;;;;;;;;;;5049673;28;20193;-63
2021/03/14 12:52:39;;;;;;;4.63;4.23;;;;;;;;;;5030571;28;20205;-62
2021/03/14 12:55:05;;;;;;;5.03;4.00;;;;;;;;;;5053516;28;20182;-62
2021/03/14 12:57:31;;;;;;;4.20;3.80;;;;;;;;;;5051531;28;20626;-62
2021/03/14 12:59:58;;;;;;;5.10;3.53;;;;;;;;;;5035206;28;20188;-64
2021/03/14 13:02:24;;;;;;;3.73;3.43;;;;;;;;;;5021857;28;20215;-62
2021/03/14 13:04:50;;;;;;;3.93;2.73;;;;;;;;;;5038799;28;20185;-62
2021/03/14 13:07:16;;;;;;;4.50;2.90;;;;;;;;;;5038486;28;20178;-62
2021/03/14 13:09:42;;;;;;;4.10;2.50;;;;;;;;;;5020046;28;20628;-62
2021/03/14 13:12:08;;;;;;;3.87;2.70;;;;;;;;;;5057631;28;20177;-63
2021/03/14 13:14:36;;;;;;;4.67;2.70;;;;;;;;;;5059558;28;20200;-61
2021/03/14 13:17:02;;;;;;;2.73;2.20;;;;;;;;;;5041365;28;20204;-62
2021/03/14 13:19:28;;;;;;;3.20;2.53;;;;;;;;;;5052821;28;20596;-63
2021/03/14 13:21:55;;;;;;;3.10;2.50;;;;;;;;;;5026885;28;20177;-61
2021/03/14 13:24:21;;;;;;;2.70;2.50;;;;;;;;;;5023886;28;20185;-62
2021/03/14 13:26:48;;;;;;;4.13;2.40;;;;;;;;;;5049097;28;20187;-61
2021/03/14 13:29:14;;;;;;;3.57;2.00;;;;;;;;;;5033876;28;20236;-62
2021/03/14 13:31:40;;;;;;;5.73;2.17;;;;;;;;;;5054445;28;20647;-62
2021/03/14 13:34:06;;;;;;;3.40;2.30;;;;;;;;;;5036505;28;20667;-62
2021/03/14 13:36:32;;;;;;;2.30;1.87;;;;;;;;;;5059963;28;20204;-62
2021/03/14 13:38:58;;;;;;;3.23;1.97;;;;;;;;;;5026683;28;20225;-63
2021/03/14 13:41:24;;;;;;;5.27;2.20;;;;;;;;;;5052192;28;20217;-62
2021/03/14 13:43:50;;;;;;;3.03;2.00;;;;;;;;;;5053894;28;20185;-62
2021/03/14 13:46:16;;;;;;;2.73;2.30;;;;;;;;;;5052534;28;20474;-62
2021/03/14 13:48:44;;;;;;;3.50;2.30;;;;;;;;;;5028779;28;20646;-62
2021/03/14 13:51:11;;;;;;;3.97;2.37;;;;;;;;;;5056851;28;20264;-62
2021/03/14 13:53:37;;;;;;;3.70;1.97;;;;;;;;;;5047238;28;20291;-62
2021/03/14 13:56:04;;;;;;;4.70;2.37;;;;;;;;;;5051017;28;20247;-61
2021/03/14 13:58:31;;;;;;;3.80;2.13;;;;;;;;;;5051892;28;20184;-61
2021/03/14 14:00:57;;;;;;;5.07;2.60;;;;;;;;;;5052315;28;20182;-61
2021/03/14 14:03:23;;;;;;;7.23;1.80;;;;;;;;;;5051955;28;20185;-62
2021/03/14 14:05:49;;;;;;;3.50;1.87;;;;;;;;;;5051926;28;20223;-62
2021/03/14 14:08:15;;;;;;;2.63;2.23;;;;;;;;;;5052052;28;20247;-63
2021/03/14 14:10:41;;;;;;;2.37;2.03;;;;;;;;;;5050213;28;20264;-62
2021/03/14 14:13:09;;;;;;;2.93;2.23;;;;;;;;;;5033971;28;20301;-61
2021/03/14 14:15:36;;;;;;;2.20;1.80;;;;;;;;;;5034236;28;20553;-62
2021/03/14 14:18:02;;;;;;;3.27;1.97;;;;;;;;;;5054296;28;20177;-62
2021/03/14 14:20:28;;;;;;;3.33;1.83;;;;;;;;;;5061987;28;20188;-61
2021/03/14 14:22:54;;;;;;;1.70;1.60;;;;;;;;;;5055094;28;20490;-64
2021/03/14 14:25:20;;;;;;;3.57;1.93;;;;;;;;;;5050518;28;20526;-61
2021/03/14 14:27:47;;;;;;;1.97;1.80;;;;;;;;;;5048902;28;20291;-61
2021/03/14 14:30:13;;;;;;;3.67;2.03;;;;;;;;;;5030341;28;20209;-61
2021/03/14 14:32:39;;;;;;;3.80;2.07;;;;;;;;;;5033441;28;20223;-62
2021/03/14 14:35:06;;;;;;;4.87;2.10;;;;;;;;;;5050676;28;20174;-61
2021/03/14 14:37:32;;;;;;;4.27;1.90;;;;;;;;;;5052002;28;20181;-61
2021/03/14 14:39:58;;;;;;;2.50;2.30;;;;;;;;;;5048313;28;20669;-61
2021/03/14 14:42:24;;;;;;;3.13;1.97;;;;;;;;;;5041943;28;20183;-61
2021/03/14 14:44:52;;;;;;;2.43;2.23;;;;;;;;;;5039149;28;20210;-61
2021/03/14 14:47:19;;;;;;;2.83;2.30;;;;;;;;;;5049752;28;20551;-62